Time;durP1;ratioP1;P1;durP2;ratioP2;P2;SDS_P1;SDS_P2;PMS_P1;PMS_P2;Temp;Humidity;BMP_temperature;BMP_pressure;BME280_temperature;BME280_humidity;BME280_pressure;Samples;Min_cycle;Max_cycle;Signal;HPM_P1;HPM_P2
2023/01/29 00:00:21;;;;;;;7.63;5.07;;;0.30;99.90;;;0.13;62.34;101169.56;4967805;28;20228;-68
2023/01/29 00:02:49;;;;;;;6.83;5.07;;;0.30;99.90;;;0.08;62.54;101168.50;4969432;28;20539;-67
2023/01/29 00:05:18;;;;;;;9.03;6.03;;;0.30;99.90;;;0.08;62.74;101177.75;4966973;28;20263;-67
2023/01/29 00:07:56;;;;;;;7.77;4.77;;;0.30;99.90;;;0.02;63.27;101160.56;4971852;28;20213;-66
2023/01/29 00:10:25;;;;;;;11.47;5.90;;;0.30;99.90;;;-0.02;63.02;101157.03;4968299;28;20200;-67
2023/01/29 00:12:54;;;;;;;6.63;5.23;;;0.20;99.90;;;-0.07;63.38;101163.53;4967996;28;20228;-67
2023/01/29 00:15:24;;;;;;;8.60;5.33;;;0.20;99.90;;;-0.10;63.57;101149.84;4963140;28;20620;-66
2023/01/29 00:17:53;;;;;;;8.80;5.17;;;0.10;99.90;;;-0.13;63.37;101155.63;4966433;28;20263;-66
2023/01/29 00:20:21;;;;;;;7.53;5.10;;;0.20;99.90;;;-0.11;63.73;101149.00;4968886;28;20221;-65
2023/01/29 00:22:50;;;;;;;8.60;5.20;;;0.10;99.90;;;-0.14;63.38;101143.75;4967791;28;20237;-67
2023/01/29 00:25:18;;;;;;;6.77;4.47;;;0.10;99.90;;;-0.17;63.28;101135.16;4968128;28;20291;-67
2023/01/29 00:27:47;;;;;;;5.73;4.90;;;0.00;99.90;;;-0.21;63.45;101141.72;4968146;28;20252;-67
2023/01/29 00:30:18;;;;;;;6.57;5.03;;;0.00;99.90;;;-0.22;63.59;101134.03;4958960;28;20304;-67
2023/01/29 00:32:48;;;;;;;5.77;4.53;;;0.00;99.90;;;-0.23;63.97;101130.63;4966824;28;20221;-67
2023/01/29 00:35:17;;;;;;;6.73;4.87;;;0.00;99.90;;;-0.25;63.97;101132.25;4958739;28;20768;-64
2023/01/29 00:37:45;;;;;;;6.50;4.63;;;0.00;99.90;;;-0.21;63.78;101128.19;4965719;28;20221;-67
2023/01/29 00:40:14;;;;;;;6.40;4.33;;;-0.10;99.90;;;-0.20;63.85;101130.78;4968881;28;20816;-67
2023/01/29 00:45:30;;;;;;;6.43;4.67;;;0.00;99.90;;;-0.15;63.60;101125.94;4965805;28;20215;-66
2023/01/29 00:48:00;;;;;;;5.47;4.60;;;0.00;99.90;;;-0.18;63.47;101108.94;4970688;28;20658;-66
2023/01/29 00:50:29;;;;;;;6.80;4.43;;;0.00;99.90;;;-0.13;63.62;101124.38;4958022;28;20232;-67
2023/01/29 00:52:57;;;;;;;6.80;4.53;;;0.00;99.90;;;-0.14;63.59;101128.56;4961140;28;20979;-69
2023/01/29 00:55:26;;;;;;;4.20;3.50;;;0.00;99.90;;;-0.13;63.89;101115.09;4965294;28;20256;-68
2023/01/29 00:57:55;;;;;;;4.63;3.87;;;0.00;99.90;;;-0.14;64.11;101118.44;4963329;28;20212;-67
2023/01/29 01:00:25;;;;;;;5.20;3.43;;;0.00;99.90;;;-0.16;63.12;101114.94;4963306;28;20236;-67
2023/01/29 01:03:07;;;;;;;6.13;3.23;;;0.00;99.90;;;-0.18;63.62;101114.00;4961818;28;20292;-70
2023/01/29 01:05:37;;;;;;;6.43;3.60;;;0.00;99.90;;;-0.23;63.92;101100.25;4963441;28;20204;-66
2023/01/29 01:10:19;;;;;;;4.97;3.47;;;-0.10;99.90;;;-0.27;63.57;101091.63;4967413;28;20243;-67
2023/01/29 01:11:01;;;;;;;4.50;3.10;;;-0.10;99.90;;;-0.30;63.79;101083.88;4970937;28;20212;-66
2023/01/29 01:13:31;;;;;;;3.93;3.27;;;-0.10;99.90;;;-0.29;63.98;101077.16;4970641;28;20640;-72
2023/01/29 01:15:59;;;;;;;4.70;3.37;;;-0.10;99.90;;;-0.27;64.20;101085.69;4976022;28;20259;-65
2023/01/29 01:18:30;;;;;;;4.73;3.77;;;-0.10;99.90;;;-0.28;64.10;101068.78;4974384;28;20279;-65
2023/01/29 01:21:00;;;;;;;6.07;3.80;;;-0.10;99.90;;;-0.26;64.56;101072.22;4972441;28;20640;-65
2023/01/29 01:23:28;;;;;;;3.70;3.40;;;-0.10;99.90;;;-0.25;64.32;101071.47;4974943;28;20209;-68
2023/01/29 01:25:57;;;;;;;5.03;3.27;;;-0.10;99.90;;;-0.25;64.08;101072.31;4972705;28;20217;-68
2023/01/29 01:28:26;;;;;;;6.47;3.60;;;-0.10;99.90;;;-0.30;64.03;101075.41;4974623;28;20264;-70
2023/01/29 01:30:55;;;;;;;6.23;3.80;;;-0.10;99.90;;;-0.30;64.25;101066.16;4976365;28;20231;-67
2023/01/29 01:33:24;;;;;;;6.93;3.87;;;-0.10;99.90;;;-0.30;64.06;101067.81;4974990;28;20239;-65
2023/01/29 01:35:52;;;;;;;4.60;3.73;;;-0.10;99.90;;;-0.31;63.94;101073.69;4971688;28;20682;-69
2023/01/29 01:38:22;;;;;;;5.97;3.87;;;-0.10;99.90;;;-0.28;64.08;101073.84;4959539;28;20216;-67
2023/01/29 01:40:50;;;;;;;6.57;3.80;;;-0.10;99.90;;;-0.28;63.69;101078.91;4969956;28;20224;-66
2023/01/29 01:43:19;;;;;;;5.40;3.87;;;-0.20;99.90;;;-0.31;63.69;101071.16;4966563;28;20204;-66
2023/01/29 01:45:48;;;;;;;6.57;4.23;;;-0.20;99.90;;;-0.34;63.90;101065.94;4966291;28;20645;-64
2023/01/29 01:48:21;;;;;;;4.77;3.53;;;-0.20;99.90;;;-0.35;63.91;101071.81;4965856;28;20207;-66
2023/01/29 01:50:53;;;;;;;4.70;3.87;;;-0.20;99.90;;;-0.34;64.08;101079.47;4967157;28;20271;-66
2023/01/29 01:53:33;;;;;;;5.40;3.97;;;-0.10;99.90;;;-0.33;64.09;101075.25;4973316;28;20217;-67
2023/01/29 01:56:06;;;;;;;4.40;3.80;;;-0.10;99.90;;;-0.33;64.07;101076.16;4964055;28;20200;-69
2023/01/29 01:58:40;;;;;;;5.73;4.30;;;-0.20;99.90;;;-0.33;63.84;101068.56;4967079;28;20208;-70
2023/01/29 02:01:09;;;;;;;5.90;4.17;;;-0.20;99.90;;;-0.31;63.81;101076.22;4976572;28;20240;-68
2023/01/29 02:09:34;;;;;;;6.97;4.30;;;-0.20;99.90;;;-0.30;64.15;101085.53;4994085;28;20212;-69
2023/01/29 02:12:05;;;;;;;5.73;4.10;;;-0.10;99.90;;;-0.31;63.99;101084.69;4990686;28;20212;-72
2023/01/29 02:14:38;;;;;;;7.53;4.60;;;-0.20;99.90;;;-0.33;64.71;101078.69;4996459;28;20241;-68
2023/01/29 02:17:10;;;;;;;7.27;4.73;;;-0.10;99.90;;;-0.33;64.45;101078.69;4993922;28;20201;-68
2023/01/29 02:19:50;;;;;;;6.63;4.93;;;-0.20;99.90;;;-0.34;64.41;101073.53;4992289;28;20311;-69
2023/01/29 02:22:54;;;;;;;7.23;4.53;;;-0.20;99.90;;;-0.36;64.56;101068.41;4993799;28;20195;-66
2023/01/29 02:26:15;;;;;;;7.53;4.93;;;-0.20;99.90;;;-0.36;64.65;101070.06;4988826;28;20228;-71
2023/01/29 02:28:52;;;;;;;7.33;4.83;;;-0.20;99.90;;;-0.39;64.54;101063.19;4991867;28;20241;-67
2023/01/29 02:31:30;;;;;;;8.37;5.37;;;-0.20;99.90;;;-0.35;64.73;101061.66;4993744;28;20215;-71
2023/01/29 02:34:11;;;;;;;12.53;5.23;;;-0.20;99.90;;;-0.36;64.94;101055.75;4990929;28;20221;-72
2023/01/29 02:36:47;;;;;;;8.17;5.87;;;-0.20;99.90;;;-0.38;64.87;101053.91;4990410;28;20176;-72
2023/01/29 02:39:23;;;;;;;8.83;5.40;;;-0.20;99.90;;;-0.39;64.83;101047.13;4990322;28;20204;-68
2023/01/29 02:42:01;;;;;;;8.17;5.30;;;-0.20;99.90;;;-0.42;65.21;101044.44;4990739;28;20193;-70
2023/01/29 02:44:39;;;;;;;7.20;5.93;;;-0.20;99.90;;;-0.43;65.40;101047.78;4990111;28;20204;-69
2023/01/29 02:47:17;;;;;;;8.80;5.47;;;-0.20;99.90;;;-0.43;65.52;101038.50;4991066;28;20204;-66
2023/01/29 02:49:50;;;;;;;9.67;5.70;;;-0.20;99.90;;;-0.41;65.40;101041.09;4989868;28;20256;-69
2023/01/29 02:52:23;;;;;;;6.77;5.10;;;-0.20;99.90;;;-0.44;65.31;101033.34;4989669;28;20188;-68
2023/01/29 02:54:58;;;;;;;8.47;5.20;;;-0.30;99.90;;;-0.43;65.55;101037.66;4989474;28;20205;-67
2023/01/29 02:57:31;;;;;;;8.93;5.00;;;-0.30;99.90;;;-0.44;65.80;101046.91;4992062;28;20206;-68
2023/01/29 03:00:09;;;;;;;6.93;5.23;;;-0.30;99.90;;;-0.46;65.96;101047.63;4988916;28;20232;-67
2023/01/29 03:02:44;;;;;;;8.83;5.10;;;-0.30;99.90;;;-0.46;65.80;101045.09;4988083;28;20207;-68
2023/01/29 03:05:18;;;;;;;9.23;5.50;;;-0.30;99.90;;;-0.49;66.53;101028.06;4989485;28;20212;-67
2023/01/29 03:07:54;;;;;;;7.43;5.23;;;-0.30;99.90;;;-0.48;66.65;101024.75;4991437;28;20183;-67
2023/01/29 03:10:30;;;;;;;9.50;6.20;;;-0.30;99.90;;;-0.47;66.27;101023.09;4989257;28;20208;-67
2023/01/29 03:13:04;;;;;;;7.40;5.50;;;-0.30;99.90;;;-0.48;66.60;101027.28;4992078;28;20287;-69
2023/01/29 03:15:45;;;;;;;9.87;5.57;;;-0.30;99.90;;;-0.45;66.61;101034.16;4996450;28;20239;-70
2023/01/29 03:18:18;;;;;;;8.03;5.60;;;-0.20;99.90;;;-0.46;66.64;101034.97;4988963;28;20192;-72
2023/01/29 03:20:52;;;;;;;8.90;5.70;;;-0.30;99.90;;;-0.45;66.79;101031.63;4994722;28;20232;-71
2023/01/29 03:23:46;;;;;;;;;;;;;;;;;;;;;
2023/01/29 03:32:05;;;;;;;9.53;5.67;;;-0.30;99.90;;;-0.43;67.00;101025.84;4995885;28;20208;-69
2023/01/29 03:34:42;;;;;;;7.67;5.43;;;-0.30;99.90;;;-0.42;66.87;101024.19;4996907;28;20212;-70
2023/01/29 03:37:18;;;;;;;6.50;4.70;;;-0.20;99.90;;;-0.44;66.73;101028.28;4994269;28;20181;-71
2023/01/29 03:39:47;;;;;;;10.03;5.87;;;-0.30;99.90;;;-0.47;66.90;101020.56;4995363;28;20181;-72
2023/01/29 03:42:24;;;;;;;8.87;4.87;;;-0.30;99.90;;;-0.49;66.92;101018.81;4996583;28;20248;-70
2023/01/29 03:45:07;;;;;;;8.07;5.60;;;-0.30;99.90;;;-0.50;66.92;101027.22;4990277;28;20197;-70
2023/01/29 03:47:46;;;;;;;8.70;5.90;;;-0.30;99.90;;;-0.51;67.40;101025.50;4990308;28;20193;-68
2023/01/29 03:50:38;;;;;;;9.00;5.83;;;-0.30;99.90;;;-0.51;66.96;101024.63;4988339;28;20406;-67
2023/01/29 03:53:17;;;;;;;10.40;6.07;;;-0.30;99.90;;;-0.53;66.88;101011.88;4989169;28;20201;-70
2023/01/29 03:55:57;;;;;;;9.40;5.63;;;-0.30;99.90;;;-0.54;67.28;101015.22;4989698;28;20232;-71
2023/01/29 03:58:34;;;;;;;8.37;5.40;;;-0.30;99.90;;;-0.56;67.98;101011.72;4991027;28;20277;-69
2023/01/29 04:01:11;;;;;;;8.23;5.63;;;-0.30;99.90;;;-0.53;67.83;101011.88;4988991;28;20215;-66
2023/01/29 04:03:47;;;;;;;8.40;5.40;;;-0.30;99.90;;;-0.50;67.78;101006.09;4990878;28;20268;-69
2023/01/29 04:06:21;;;;;;;7.00;5.10;;;-0.30;99.90;;;-0.47;68.01;101010.44;4988705;28;20210;-69
2023/01/29 04:08:57;;;;;;;8.10;5.43;;;-0.40;99.90;;;-0.47;67.39;101002.84;4989035;28;20208;-69
2023/01/29 04:11:27;;;;;;;8.67;5.63;;;-0.30;99.90;;;-0.45;67.58;101008.84;4990027;28;20261;-72
2023/01/29 04:13:57;;;;;;;10.30;5.80;;;-0.30;99.90;;;-0.45;67.85;101003.78;4989004;28;20229;-68
2023/01/29 04:16:31;;;;;;;7.20;5.23;;;-0.20;99.90;;;-0.45;67.45;101003.78;4989787;28;20189;-70
2023/01/29 04:19:00;;;;;;;7.33;5.33;;;-0.20;99.90;;;-0.46;67.45;101000.38;4989943;28;20216;-70
2023/01/29 04:21:31;;;;;;;6.10;4.83;;;-0.20;99.90;;;-0.44;67.54;101002.97;4987906;28;20197;-69
2023/01/29 04:24:00;;;;;;;7.77;5.60;;;-0.30;99.90;;;-0.41;67.37;100996.41;4990070;28;20276;-69
2023/01/29 04:26:55;;;;;;;7.23;5.07;;;-0.20;99.90;;;-0.43;67.25;100981.94;4986949;28;20201;-70
2023/01/29 04:29:47;;;;;;;7.73;5.07;;;-0.30;99.90;;;-0.42;67.38;100979.47;4989845;28;20227;-70
2023/01/29 04:32:22;;;;;;;6.90;5.07;;;-0.20;99.90;;;-0.45;67.33;100986.06;4988103;28;20204;-67
2023/01/29 04:35:02;;;;;;;10.27;5.70;;;-0.20;99.90;;;-0.42;67.34;100988.75;4980114;28;20681;-70
2023/01/29 04:37:39;;;;;;;6.97;4.90;;;-0.20;99.90;;;-0.42;67.61;100983.69;4963992;28;20196;-71
2023/01/29 04:40:20;;;;;;;6.00;4.40;;;-0.20;99.90;;;-0.41;67.54;100975.28;4967834;28;20196;-70
2023/01/29 04:43:01;;;;;;;7.27;5.00;;;-0.20;99.90;;;-0.41;67.44;100982.88;4972198;28;20666;-72
2023/01/29 04:45:46;;;;;;;7.80;4.60;;;-0.20;99.90;;;-0.42;67.63;100979.47;4965746;28;20201;-71
2023/01/29 04:48:22;;;;;;;7.10;4.60;;;-0.20;99.90;;;-0.37;67.31;100983.13;4967692;28;20661;-70
2023/01/29 04:51:01;;;;;;;9.47;5.10;;;-0.10;99.90;;;-0.34;67.74;100982.38;4969279;28;20207;-70
2023/01/29 04:53:38;;;;;;;6.07;4.90;;;-0.20;99.90;;;-0.34;66.96;100968.03;4968002;28;20224;-70
2023/01/29 04:56:14;;;;;;;6.77;5.30;;;-0.20;99.90;;;-0.33;67.34;100956.25;4968580;28;20610;-69
2023/01/29 04:58:48;;;;;;;6.37;4.87;;;-0.20;99.90;;;-0.34;67.25;100967.19;4968113;28;20291;-70
2023/01/29 05:01:19;;;;;;;7.07;5.20;;;-0.20;99.90;;;-0.37;67.25;100965.41;4968097;28;20572;-72
2023/01/29 05:03:53;;;;;;;7.23;5.17;;;-0.20;99.90;;;-0.38;67.37;100965.31;4969248;28;20212;-72
2023/01/29 05:06:25;;;;;;;8.77;5.03;;;-0.20;99.90;;;-0.38;67.29;100968.69;4971194;28;20800;-70
2023/01/29 05:08:55;;;;;;;8.53;5.33;;;-0.20;99.90;;;-0.39;67.39;100971.16;4973148;28;20264;-70
2023/01/29 05:11:25;;;;;;;8.97;5.20;;;-0.20;99.90;;;-0.40;67.55;100974.50;4973989;28;20218;-71
2023/01/29 05:13:55;;;;;;;8.30;5.40;;;-0.20;99.90;;;-0.39;67.19;100973.69;4973891;28;20639;-72
2023/01/29 05:16:28;;;;;;;6.93;5.03;;;-0.20;99.90;;;-0.38;67.33;100967.84;4973795;28;20205;-71
2023/01/29 05:18:56;;;;;;;7.97;4.97;;;-0.20;99.90;;;-0.40;67.60;100965.25;4971842;28;20197;-71
2023/01/29 05:21:27;;;;;;;9.40;6.47;;;-0.20;99.90;;;-0.39;67.61;100968.63;4974609;28;20920;-71
2023/01/29 05:24:15;;;;;;;7.47;5.50;;;-0.20;99.90;;;-0.40;67.45;100962.72;4973340;28;20217;-69
2023/01/29 05:29:32;;;;;;;8.70;5.67;;;-0.20;99.90;;;-0.39;67.79;100956.84;4969796;28;20200;-71
2023/01/29 05:32:02;;;;;;;7.50;5.23;;;-0.20;99.90;;;-0.39;67.72;100959.38;4975244;28;20554;-71
2023/01/29 05:34:30;;;;;;;12.10;6.30;;;-0.20;99.90;;;-0.40;67.86;100957.66;4973794;28;20308;-71
2023/01/29 05:37:00;;;;;;;11.97;6.47;;;-0.20;99.90;;;-0.39;67.64;100950.91;4972490;28;20677;-70
2023/01/29 05:39:29;;;;;;;9.73;6.30;;;-0.20;99.90;;;-0.40;67.80;100942.47;4973902;28;20646;-71
2023/01/29 05:41:57;;;;;;;8.37;5.93;;;-0.20;99.90;;;-0.42;67.75;100931.38;4975852;28;20597;-69
2023/01/29 05:44:26;;;;;;;9.80;5.73;;;-0.20;99.90;;;-0.41;67.96;100942.38;4992251;28;20218;-68
2023/01/29 05:46:54;;;;;;;9.70;6.10;;;-0.20;99.90;;;-0.44;67.68;100934.63;4992803;28;20204;-69
2023/01/29 05:49:23;;;;;;;6.73;5.37;;;-0.20;99.90;;;-0.43;68.12;100942.31;4990817;28;20235;-68
2023/01/29 05:51:51;;;;;;;11.10;6.47;;;-0.20;99.90;;;-0.43;68.19;100943.97;4992143;28;20212;-70
2023/01/29 05:54:21;;;;;;;9.87;6.40;;;-0.20;99.90;;;-0.42;68.21;100945.72;4991025;28;20274;-69
2023/01/29 05:56:49;;;;;;;9.63;6.13;;;-0.20;99.90;;;-0.42;68.11;100938.09;4992726;28;20232;-70
2023/01/29 05:59:18;;;;;;;9.97;6.23;;;-0.20;99.90;;;-0.41;68.04;100940.69;4990705;28;20220;-67
2023/01/29 06:01:46;;;;;;;9.70;6.53;;;-0.20;99.90;;;-0.43;68.02;100941.44;4993525;28;20228;-67
2023/01/29 06:04:15;;;;;;;9.67;5.80;;;-0.30;99.90;;;-0.45;68.07;100932.91;4992629;28;20192;-68
2023/01/29 06:06:43;;;;;;;9.30;5.90;;;-0.20;99.90;;;-0.45;68.29;100948.09;4991675;28;20184;-69
2023/01/29 06:09:12;;;;;;;10.53;6.30;;;-0.20;99.90;;;-0.45;68.35;100953.16;4994853;28;20197;-71
2023/01/29 06:11:42;;;;;;;9.20;6.10;;;-0.20;99.90;;;-0.45;68.20;100959.06;4997141;28;20244;-72
2023/01/29 06:14:10;;;;;;;8.60;6.03;;;-0.20;99.90;;;-0.43;68.13;100952.44;4995844;28;20228;-68
2023/01/29 06:16:39;;;;;;;9.60;6.00;;;-0.20;99.90;;;-0.44;68.07;100950.72;4994336;28;20228;-67
2023/01/29 06:19:07;;;;;;;7.60;5.50;;;-0.20;99.90;;;-0.42;68.34;100943.16;4996007;28;20193;-68
2023/01/29 06:21:35;;;;;;;7.80;6.20;;;-0.20;99.90;;;-0.41;68.15;100943.22;4996063;28;20196;-72
2023/01/29 06:24:05;;;;;;;9.40;6.93;;;-0.20;99.90;;;-0.44;68.01;100945.66;4995071;28;20188;-67
2023/01/29 06:26:33;;;;;;;9.27;6.20;;;-0.20;99.90;;;-0.43;68.12;100949.03;4994836;28;20212;-69
2023/01/29 06:29:03;;;;;;;11.60;6.60;;;-0.20;99.90;;;-0.41;68.36;100949.97;4997672;28;20235;-71
2023/01/29 06:31:31;;;;;;;9.80;6.23;;;-0.20;99.90;;;-0.43;68.05;100952.44;4993252;28;20196;-68
2023/01/29 06:34:06;;;;;;;10.83;6.00;;;-0.20;99.90;;;-0.43;68.13;100931.31;4995361;28;20208;-71
2023/01/29 06:36:35;;;;;;;9.40;6.47;;;-0.20;99.90;;;-0.43;68.29;100939.78;4991614;28;20236;-72
2023/01/29 06:39:04;;;;;;;8.50;6.23;;;-0.20;99.90;;;-0.40;68.30;100939.06;4995642;28;20229;-64
2023/01/29 06:41:33;;;;;;;8.33;6.00;;;-0.20;99.90;;;-0.40;68.07;100942.47;4995885;28;20200;-68
2023/01/29 06:44:03;;;;;;;11.17;5.83;;;-0.20;99.90;;;-0.37;68.21;100942.59;4994497;28;20196;-67
2023/01/29 06:46:31;;;;;;;11.43;7.10;;;-0.10;99.90;;;-0.36;68.04;100939.28;4990959;28;20212;-67
2023/01/29 06:49:00;;;;;;;10.07;6.70;;;-0.10;99.90;;;-0.34;68.45;100936.81;4989925;28;20207;-71
2023/01/29 06:51:28;;;;;;;10.57;6.93;;;-0.10;99.90;;;-0.34;68.39;100940.19;4987729;28;20240;-71
2023/01/29 06:53:57;;;;;;;9.27;6.33;;;-0.10;99.90;;;-0.30;68.05;100936.13;4990457;28;20414;-66
2023/01/29 06:56:26;;;;;;;11.37;7.20;;;-0.10;99.90;;;-0.29;67.76;100942.97;4990250;28;20223;-69
2023/01/29 06:58:56;;;;;;;13.80;7.47;;;-0.10;99.90;;;-0.29;67.94;100945.50;4990137;28;20184;-65
2023/01/29 07:01:26;;;;;;;10.80;7.10;;;0.00;99.90;;;-0.31;67.80;100942.88;4986027;28;20224;-70
2023/01/29 07:04:04;;;;;;;13.27;7.50;;;-0.10;99.90;;;-0.27;67.95;100943.88;4969334;28;20685;-75
2023/01/29 07:06:32;;;;;;;9.30;6.57;;;-0.10;99.90;;;-0.28;68.08;100937.97;4974564;28;20204;-76
2023/01/29 07:09:01;;;;;;;11.40;7.13;;;0.00;99.90;;;-0.27;68.03;100928.69;4968592;28;20231;-78
2023/01/29 07:11:30;;;;;;;10.93;7.23;;;0.00;99.90;;;-0.27;67.83;100921.09;4970087;28;20279;-77
2023/01/29 07:13:59;;;;;;;10.40;6.73;;;0.00;99.90;;;-0.26;67.65;100907.63;4976167;28;20562;-78
2023/01/29 07:16:29;;;;;;;10.33;6.80;;;0.00;99.90;;;-0.27;67.71;100910.97;4975386;28;20224;-79
2023/01/29 07:18:57;;;;;;;12.50;7.30;;;0.00;99.90;;;-0.26;67.79;100915.22;4970919;28;20209;-76
2023/01/29 07:21:26;;;;;;;9.10;6.40;;;0.00;99.90;;;-0.24;67.62;100918.72;4975416;28;20646;-76
2023/01/29 07:23:55;;;;;;;12.23;6.50;;;0.00;99.90;;;-0.20;67.69;100922.25;4974967;28;20200;-77
2023/01/29 07:26:23;;;;;;;14.30;6.40;;;0.10;99.90;;;-0.18;67.45;100924.06;4967727;28;20713;-76
2023/01/29 07:28:52;;;;;;;9.47;6.10;;;0.10;99.90;;;-0.16;67.54;100919.91;4972939;28;20212;-76
2023/01/29 07:31:21;;;;;;;11.20;6.47;;;0.10;99.90;;;-0.14;67.39;100930.13;4973500;28;20608;-77
2023/01/29 07:33:51;;;;;;;10.27;6.60;;;0.10;99.90;;;-0.14;67.70;100946.19;4973396;28;20271;-72
2023/01/29 07:36:20;;;;;;;11.30;6.40;;;0.10;99.90;;;-0.14;67.30;100945.34;4970393;28;20235;-78
2023/01/29 07:38:50;;;;;;;8.60;6.73;;;0.10;99.90;;;-0.10;67.15;100944.69;4966310;28;20216;-73
2023/01/29 07:41:19;;;;;;;8.63;6.27;;;0.20;99.90;;;-0.07;67.41;100942.28;4967526;28;20725;-74
2023/01/29 07:43:48;;;;;;;10.03;6.43;;;0.20;99.90;;;-0.06;67.10;100947.41;4973687;28;20256;-74
2023/01/29 07:46:16;;;;;;;9.80;6.33;;;0.20;99.90;;;-0.06;67.39;100952.47;4969805;28;20238;-72
2023/01/29 07:48:45;;;;;;;11.57;6.13;;;0.20;99.90;;;0.00;67.27;100941.78;4971035;28;20204;-74
2023/01/29 07:51:16;;;;;;;10.67;6.83;;;0.30;99.90;;;0.05;67.16;100947.03;4970630;28;20212;-72
2023/01/29 07:53:45;;;;;;;10.50;6.37;;;0.30;99.90;;;0.06;66.66;100938.63;4972624;28;20215;-75
2023/01/29 07:56:14;;;;;;;9.17;6.07;;;0.30;99.90;;;0.09;66.81;100933.72;4972554;28;20260;-75
2023/01/29 07:58:43;;;;;;;10.00;6.40;;;0.40;99.90;;;0.13;66.76;100921.22;4969935;28;20204;-72
2023/01/29 08:01:11;;;;;;;9.50;6.23;;;0.40;99.90;;;0.19;66.94;100915.59;4963314;28;20229;-75
2023/01/29 08:03:40;;;;;;;11.60;6.67;;;0.50;99.90;;;0.27;66.53;100926.91;4969786;28;20205;-75
2023/01/29 08:06:08;;;;;;;11.03;6.13;;;0.50;99.90;;;0.31;66.34;100923.72;4971574;28;20607;-77
2023/01/29 08:08:38;;;;;;;9.53;6.53;;;0.60;99.90;;;0.36;65.95;100932.38;4970035;28;21850;-79
2023/01/29 08:11:06;;;;;;;11.83;6.30;;;0.60;99.90;;;0.33;65.66;100929.75;4972600;28;20305;-75
2023/01/29 08:13:35;;;;;;;9.57;6.33;;;0.50;99.90;;;0.31;66.18;100927.91;4967262;28;20752;-72
2023/01/29 08:16:05;;;;;;;10.20;6.50;;;0.60;99.90;;;0.31;65.96;100920.31;4969428;28;20669;-74
2023/01/29 08:18:34;;;;;;;11.53;6.90;;;0.60;99.90;;;0.30;65.53;100899.19;4972467;28;20208;-75
2023/01/29 08:21:03;;;;;;;9.37;5.97;;;0.50;99.90;;;0.32;65.25;100896.69;4973260;28;20597;-75
2023/01/29 08:23:32;;;;;;;10.77;6.03;;;0.60;99.90;;;0.31;65.07;100902.56;4963854;28;20201;-76
2023/01/29 08:26:03;;;;;;;9.77;6.20;;;0.50;99.90;;;0.30;65.33;100904.25;4971147;28;20357;-76
2023/01/29 08:28:31;;;;;;;9.33;6.47;;;0.50;99.90;;;0.28;65.68;100903.31;4964185;28;21264;-72
2023/01/29 08:31:00;;;;;;;11.10;6.17;;;0.50;99.90;;;0.28;65.71;100903.31;4968250;28;20214;-72
2023/01/29 08:33:29;;;;;;;10.03;6.30;;;0.60;99.90;;;0.31;64.97;100897.50;4964275;28;20340;-77
2023/01/29 08:36:07;;;;;;;11.50;7.07;;;0.50;99.90;;;0.32;64.95;100907.69;4970905;28;20251;-74
2023/01/29 08:38:36;;;;;;;9.53;6.30;;;0.50;99.90;;;0.31;65.73;100905.97;4968894;28;20582;-68
2023/01/29 08:41:07;;;;;;;9.20;6.00;;;0.60;99.90;;;0.32;65.33;100917.84;4969569;28;20328;-70
2023/01/29 08:43:37;;;;;;;8.50;6.27;;;0.60;99.90;;;0.36;65.15;100917.16;4970105;28;20251;-69
2023/01/29 08:46:07;;;;;;;9.70;6.37;;;0.60;99.90;;;0.39;65.74;100912.22;4971797;28;20302;-68
2023/01/29 08:48:35;;;;;;;9.00;6.20;;;0.70;99.90;;;0.42;65.42;100904.78;4974682;28;20210;-70
2023/01/29 08:51:04;;;;;;;9.80;6.00;;;0.70;99.90;;;0.48;65.05;100899.97;4969532;28;20216;-71
2023/01/29 08:53:33;;;;;;;10.50;5.70;;;0.70;99.90;;;0.50;64.71;100897.50;4965066;28;20217;-71
2023/01/29 08:56:06;;;;;;;8.53;5.37;;;0.70;99.90;;;0.52;65.08;100895.91;4966369;28;20220;-71
2023/01/29 08:58:35;;;;;;;10.60;6.40;;;0.80;99.90;;;0.51;64.75;100899.22;4965557;28;20213;-70
2023/01/29 09:01:08;;;;;;;9.13;5.80;;;0.70;99.90;;;0.51;64.81;100901.75;4968463;28;20240;-70
2023/01/29 09:03:39;;;;;;;9.67;6.23;;;0.80;99.90;;;0.51;64.73;100889.06;4970942;28;20532;-71
2023/01/29 09:06:10;;;;;;;9.57;6.80;;;0.80;99.90;;;0.52;65.14;100892.50;4972113;28;20553;-74
2023/01/29 09:08:39;;;;;;;9.93;6.40;;;0.80;99.90;;;0.55;65.10;100890.94;4969919;28;20232;-77
2023/01/29 09:11:09;;;;;;;8.53;6.27;;;0.80;99.90;;;0.58;65.16;100886.00;4970577;28;20208;-73
2023/01/29 09:13:38;;;;;;;11.73;6.90;;;0.90;99.90;;;0.66;65.48;100878.72;4970005;28;20213;-66
2023/01/29 09:16:07;;;;;;;10.93;6.77;;;0.90;99.90;;;0.72;65.02;100871.38;4970637;28;20205;-72
2023/01/29 09:18:36;;;;;;;9.10;5.90;;;1.00;99.90;;;0.76;65.57;100869.81;4971835;28;20283;-73
2023/01/29 09:21:05;;;;;;;10.83;6.30;;;1.00;99.90;;;0.79;65.32;100875.88;4972230;28;20240;-74
2023/01/29 09:23:34;;;;;;;13.87;6.30;;;1.00;99.90;;;0.77;65.69;100857.19;4977863;28;20263;-72
2023/01/29 09:26:03;;;;;;;12.93;6.33;;;1.10;99.90;;;0.78;66.06;100858.94;4977277;28;20659;-74
2023/01/29 09:28:33;;;;;;;9.80;6.17;;;1.10;99.90;;;0.75;66.68;100875.72;4975915;28;20204;-66
2023/01/29 09:31:02;;;;;;;11.63;6.30;;;1.00;99.90;;;0.71;66.82;100869.63;4983868;28;20220;-73
2023/01/29 09:33:31;;;;;;;9.90;6.00;;;1.00;99.90;;;0.72;66.94;100871.38;4976938;28;20558;-76
2023/01/29 09:35:59;;;;;;;9.20;6.10;;;1.00;99.90;;;0.70;66.72;100867.88;4980769;28;20221;-72
2023/01/29 09:38:28;;;;;;;9.43;6.20;;;1.00;99.90;;;0.70;67.07;100866.25;4971018;28;20275;-73
2023/01/29 09:41:08;;;;;;;11.33;6.57;;;1.00;99.90;;;0.70;66.91;100860.28;4973034;28;20212;-69
2023/01/29 09:43:49;;;;;;;11.60;6.50;;;1.00;99.90;;;0.70;66.95;100865.34;4972089;28;20258;-76
2023/01/29 09:46:24;;;;;;;8.50;5.93;;;1.00;99.90;;;0.73;66.68;100860.41;4974265;28;20251;-70
2023/01/29 09:49:01;;;;;;;11.00;6.47;;;1.00;99.90;;;0.70;66.95;100845.06;4970053;28;20216;-74
2023/01/29 09:51:37;;;;;;;9.47;6.47;;;1.00;99.90;;;0.75;67.87;100842.72;4974087;28;20720;-72
2023/01/29 09:54:21;;;;;;;13.37;6.67;;;1.00;99.90;;;0.81;67.86;100853.09;4968356;28;20245;-71
2023/01/29 09:56:55;;;;;;;9.47;6.70;;;1.10;99.90;;;0.88;68.17;100835.66;4969564;28;20225;-73
2023/01/29 09:59:29;;;;;;;10.87;6.80;;;1.10;99.90;;;0.93;68.19;100838.41;4967194;28;20205;-67
2023/01/29 10:02:17;;;;;;;10.90;6.80;;;1.20;99.90;;;1.00;67.30;100839.53;4967041;28;20286;-71
2023/01/29 10:05:08;;;;;;;10.40;6.63;;;1.20;99.90;;;1.04;68.28;100831.22;4963522;28;20205;-66
2023/01/29 10:08:27;;;;;;;11.37;6.53;;;1.30;99.90;;;1.11;68.26;100831.50;4962939;28;20260;-68
2023/01/29 10:11:06;;;;;;;10.03;5.97;;;1.40;99.90;;;1.15;68.01;100827.44;4956257;28;20709;-65
2023/01/29 10:13:48;;;;;;;10.17;7.07;;;1.50;99.90;;;1.18;68.35;100830.94;4969553;28;20621;-64
2023/01/29 10:16:39;;;;;;;10.43;6.73;;;1.50;99.90;;;1.19;68.50;100826.72;4973073;28;20696;-66
2023/01/29 10:19:52;;;;;;;11.37;6.60;;;1.50;99.90;;;1.08;69.00;100822.91;4961502;28;20662;-64
2023/01/29 10:22:57;;;;;;;10.73;6.67;;;1.40;99.90;;;1.01;68.94;100808.25;4971356;28;20212;-65
2023/01/29 10:25:26;;;;;;;9.50;6.43;;;1.30;99.90;;;0.94;70.07;100819.81;4974571;28;20208;-64
2023/01/29 10:27:58;;;;;;;8.10;6.23;;;1.20;99.90;;;0.90;70.66;100818.84;4974670;28;20704;-63
2023/01/29 10:30:33;;;;;;;19.03;6.47;;;1.20;99.90;;;0.88;71.23;100812.81;4976523;28;20279;-64
2023/01/29 10:33:07;;;;;;;11.57;6.77;;;1.20;99.90;;;0.86;71.25;100811.91;4978283;28;20715;-66
2023/01/29 10:35:41;;;;;;;10.53;6.73;;;1.20;99.90;;;0.82;71.85;100810.06;4976800;28;20251;-64
2023/01/29 10:38:25;;;;;;;9.60;6.47;;;1.10;99.90;;;0.80;71.48;100816.72;4977562;28;20213;-61
2023/01/29 10:41:06;;;;;;;9.67;6.70;;;1.10;99.90;;;0.80;72.21;100809.13;4977958;28;20267;-61
2023/01/29 10:43:48;;;;;;;11.27;7.20;;;1.10;99.90;;;0.79;72.07;100812.47;4975126;28;20196;-64
2023/01/29 10:46:31;;;;;;;9.77;6.90;;;1.10;99.90;;;0.77;71.60;100811.53;4977537;28;20613;-65
2023/01/29 10:49:17;;;;;;;14.10;6.77;;;1.00;99.90;;;0.71;71.58;100807.09;4976992;28;20721;-64
2023/01/29 10:52:04;;;;;;;9.67;7.13;;;0.90;99.90;;;0.66;72.15;100813.66;4976026;28;20213;-64
2023/01/29 10:54:57;;;;;;;10.27;7.10;;;1.00;99.90;;;0.60;71.69;100807.47;4976024;28;20216;-62
2023/01/29 10:57:45;;;;;;;12.50;7.53;;;0.90;99.90;;;0.54;72.43;100792.84;4966265;28;20618;-63
2023/01/29 11:00:21;;;;;;;13.60;8.10;;;0.80;99.90;;;0.53;72.70;100798.75;4977667;28;20236;-61